Terminal Aerodrome Forecast
Issued by NWS Mt. Holly, NJ

Home | Current Version | Previous Version | Text Only | Print | Product List | Glossary On
Versions: 1 2 3 4 5 6 7 8 9 10 11 12 13 14 15 16 17 18 19 20 21 22 23 24 25 26 27 28 29 30 31 32 33 34 35 36 37 38 39 40 41 42 43
241
FTUS41 KPHI 261451 AAA
TAFABE
TAF AMD
KABE 261451Z 2615/2712 07010KT P6SM OVC020
     FM261600 08010KT P6SM OVC015
     FM270000 09006KT 5SM BR OVC010
     FM270600 10005KT 4SM -RA BR OVC007=

USA.gov is the U.S. government's official web portal to all federal, state and local government web resources and services.